Time;durP1;ratioP1;P1;durP2;ratioP2;P2;SDS_P1;SDS_P2;PMS_P1;PMS_P2;Temp;Humidity;BMP_temperature;BMP_pressure;BME280_temperature;BME280_humidity;BME280_pressure;Samples;Min_cycle;Max_cycle;Signal;HPM_P1;HPM_P2
2022/09/19 00:00:37;;;;;;;9.57;2.72;;;;;;;7.83;100.00;101734.69;5027737;28;20025;-63
2022/09/19 00:03:02;;;;;;;8.98;2.03;;;;;;;7.79;100.00;101725.88;5027936;28;20021;-63
2022/09/19 00:05:28;;;;;;;7.35;2.40;;;;;;;7.79;100.00;101727.53;5027968;28;20021;-63
2022/09/19 00:07:53;;;;;;;7.45;2.30;;;;;;;7.75;100.00;101728.19;5026944;28;20017;-63
2022/09/19 00:10:18;;;;;;;7.85;1.90;;;;;;;7.73;100.00;101730.69;5027603;28;20030;-63
2022/09/19 00:12:43;;;;;;;10.82;3.00;;;;;;;7.69;100.00;101728.72;5013086;28;20025;-64
2022/09/19 00:15:09;;;;;;;11.95;2.05;;;;;;;7.68;100.00;101732.13;5027647;28;20026;-63
2022/09/19 00:17:34;;;;;;;7.68;1.88;;;;;;;7.67;100.00;101728.63;5027067;28;20104;-63
2022/09/19 00:20:00;;;;;;;7.10;1.70;;;;;;;7.65;100.00;101731.91;5009681;28;20041;-63
2022/09/19 00:22:25;;;;;;;8.60;1.73;;;;;;;7.64;100.00;101733.63;5014325;28;20470;-63
2022/09/19 00:24:50;;;;;;;7.50;2.00;;;;;;;7.62;100.00;101730.06;5008017;28;20488;-63
2022/09/19 00:27:25;;;;;;;8.30;2.08;;;;;;;7.62;100.00;101724.91;5026944;28;20030;-63
2022/09/19 00:29:53;;;;;;;11.43;1.98;;;;;;;7.63;100.00;101731.81;5027523;28;20036;-63
2022/09/19 00:32:22;;;;;;;11.80;2.17;;;;;;;7.64;100.00;101732.72;5027437;28;20033;-63
2022/09/19 00:34:50;;;;;;;8.13;1.40;;;;;;;7.65;100.00;101735.41;5027065;28;20029;-63
2022/09/19 00:37:20;;;;;;;7.22;1.83;;;;;;;7.63;100.00;101730.94;5026714;28;20036;-64
2022/09/19 00:39:46;;;;;;;7.43;2.28;;;;;;;7.62;100.00;101739.47;5027111;28;20032;-63
2022/09/19 00:42:21;;;;;;;8.98;1.80;;;;;;;7.60;100.00;101739.41;5027024;28;20045;-63
2022/09/19 00:44:54;;;;;;;7.88;1.85;;;;;;;7.57;100.00;101736.66;5027121;28;20036;-64
2022/09/19 00:47:25;;;;;;;8.30;1.88;;;;;;;7.52;100.00;101727.75;5026233;28;20091;-64
2022/09/19 00:49:53;;;;;;;5.18;1.77;;;;;;;7.50;100.00;101740.53;5027186;28;20064;-64
2022/09/19 00:52:30;;;;;;;6.03;2.00;;;;;;;7.45;100.00;101737.69;5027078;28;20071;-63
2022/09/19 00:54:56;;;;;;;6.68;1.80;;;;;;;7.45;100.00;101736.78;5026919;28;20038;-64
2022/09/19 00:57:33;;;;;;;8.77;1.83;;;;;;;7.43;100.00;101734.13;5026259;28;20036;-64
2022/09/19 00:59:58;;;;;;;8.27;1.67;;;;;;;7.45;100.00;101732.53;5027114;28;20279;-64
2022/09/19 01:02:28;;;;;;;6.88;1.35;;;;;;;7.49;100.00;101737.84;5026837;28;20490;-64
2022/09/19 01:04:54;;;;;;;7.47;2.00;;;;;;;7.50;100.00;101735.38;5027347;28;20033;-64
2022/09/19 01:07:28;;;;;;;7.30;1.70;;;;;;;7.50;100.00;101730.22;5026524;28;20021;-64
2022/09/19 01:10:39;;;;;;;9.10;1.70;;;;;;;7.52;100.00;101738.94;5026658;28;20057;-64
2022/09/19 01:13:09;;;;;;;10.43;1.98;;;;;;;7.53;100.00;101745.00;5023313;28;20033;-65
2022/09/19 01:16:02;;;;;;;9.47;1.80;;;;;;;7.50;100.00;101747.41;5026977;28;20446;-64
2022/09/19 01:18:45;;;;;;;6.35;1.73;;;;;;;7.49;100.00;101751.66;5026817;28;20105;-64
2022/09/19 01:21:46;;;;;;;13.80;1.92;;;;;;;7.50;100.00;101755.13;5026618;28;20485;-64
2022/09/19 01:24:40;;;;;;;5.47;1.42;;;;;;;7.47;100.00;101753.25;5026976;28;20430;-64
2022/09/19 01:27:38;;;;;;;9.88;2.10;;;;;;;7.46;100.00;101759.22;5027087;28;20112;-64
2022/09/19 01:30:12;;;;;;;8.05;1.73;;;;;;;7.44;100.00;101759.13;5008208;28;20548;-64
2022/09/19 01:32:47;;;;;;;8.10;2.13;;;;;;;7.45;100.00;101760.00;5027050;28;20040;-64
2022/09/19 01:35:16;;;;;;;16.20;2.15;;;;;;;7.44;100.00;101765.97;5013228;28;20048;-64
2022/09/19 01:37:54;;;;;;;6.35;1.60;;;;;;;7.42;100.00;101760.72;5008544;28;20350;-64
2022/09/19 01:40:22;;;;;;;8.15;1.38;;;;;;;7.39;100.00;101765.72;5026867;28;20013;-64
2022/09/19 01:42:55;;;;;;;6.72;1.52;;;;;;;7.40;100.00;101770.06;5026343;28;20057;-64
2022/09/19 01:45:28;;;;;;;9.68;2.03;;;;;;;7.40;100.00;101764.00;5026477;28;20060;-64
2022/09/19 01:48:00;;;;;;;5.30;1.45;;;;;;;7.40;100.00;101764.91;5028888;28;20377;-64
2022/09/19 01:51:10;;;;;;;3.97;1.58;;;;;;;7.39;100.00;101765.72;5029918;28;20033;-64
2022/09/19 01:53:54;;;;;;;6.45;1.83;;;;;;;7.40;100.00;101767.47;5030054;28;20021;-64
2022/09/19 01:56:39;;;;;;;9.38;1.83;;;;;;;7.41;100.00;101766.66;5030030;28;20049;-64
2022/09/19 01:59:14;;;;;;;13.82;1.80;;;;;;;7.44;100.00;101766.88;5029977;28;20036;-63
2022/09/19 02:02:38;;;;;;;7.80;1.70;;;;;;;7.44;100.00;101766.88;5029857;28;20029;-64
2022/09/19 02:05:07;;;;;;;11.80;2.58;;;;;;;7.44;100.00;101772.03;5006053;28;20132;-64
2022/09/19 02:07:46;;;;;;;11.30;2.45;;;;;;;7.42;100.00;101768.47;5029217;28;20033;-64
2022/09/19 02:10:21;;;;;;;8.43;1.55;;;;;;;7.39;100.00;101769.97;5030241;28;20539;-63
2022/09/19 02:12:52;;;;;;;10.32;2.42;;;;;;;7.35;100.00;101768.00;5029222;28;20393;-64
2022/09/19 02:15:26;;;;;;;7.63;1.23;;;;;;;7.32;100.00;101763.56;5029896;28;20033;-63
2022/09/19 02:18:24;;;;;;;7.70;1.63;;;;;;;7.30;100.00;101767.72;5029489;28;20178;-63
2022/09/19 02:20:55;;;;;;;9.43;1.33;;;;;;;7.25;100.00;101774.28;5004029;28;20064;-64
2022/09/19 02:23:24;;;;;;;6.88;1.80;;;;;;;7.23;100.00;101770.72;5029685;28;20541;-64
2022/09/19 02:25:52;;;;;;;6.13;1.55;;;;;;;7.15;100.00;101773.72;5029252;28;20471;-64
2022/09/19 02:28:34;;;;;;;6.72;1.42;;;;;;;7.12;100.00;101782.97;5029505;28;20115;-63
2022/09/19 02:30:59;;;;;;;5.30;1.83;;;;;;;7.07;100.00;101786.13;5028988;28;20068;-64
2022/09/19 02:33:25;;;;;;;6.20;1.20;;;;;;;7.03;100.00;101780.72;5029603;28;20049;-63
2022/09/19 02:36:03;;;;;;;3.83;1.60;;;;;;;7.00;100.00;101788.25;5028864;28;20401;-63
2022/09/19 02:38:32;;;;;;;12.52;2.33;;;;;;;6.97;100.00;101788.94;5029196;28;20036;-63
2022/09/19 02:41:00;;;;;;;7.03;1.65;;;;;;;6.95;100.00;101791.44;5028989;28;20033;-63
2022/09/19 02:43:51;;;;;;;9.30;1.83;;;;;;;6.93;100.00;101790.44;5028590;28;20052;-63
2022/09/19 02:46:38;;;;;;;8.70;1.92;;;;;;;6.90;100.00;101798.00;5017736;28;20079;-64
2022/09/19 02:49:38;;;;;;;6.32;1.58;;;;;;;6.85;100.00;101794.25;5028692;28;20036;-64
2022/09/19 02:52:11;;;;;;;6.65;1.65;;;;;;;6.79;100.00;101784.44;5028788;28;20025;-64
2022/09/19 02:54:39;;;;;;;5.70;2.15;;;;;;;6.79;100.00;101791.25;5028388;28;20033;-64
2022/09/19 02:57:10;;;;;;;6.15;1.85;;;;;;;6.77;100.00;101787.69;5028581;28;20072;-64
2022/09/19 02:59:39;;;;;;;;;;;;;;;6.75;100.00;101791.84;5028196;28;20033;-64
2022/09/19 03:02:16;;;;;;;7.07;1.65;;;;;;;6.75;100.00;101789.28;5028767;28;20327;-64
2022/09/19 03:04:47;;;;;;;9.80;1.60;;;;;;;6.71;100.00;101796.81;5028088;28;20037;-63
2022/09/19 03:07:44;;;;;;;6.15;1.40;;;;;;;6.73;100.00;101795.25;5028511;28;20029;-64
2022/09/19 03:10:14;;;;;;;6.25;1.30;;;;;;;6.72;100.00;101798.63;5028086;28;20074;-64
2022/09/19 03:12:54;;;;;;;4.78;1.60;;;;;;;6.71;100.00;101804.53;5028257;28;20036;-63
2022/09/19 03:15:25;;;;;;;7.60;1.73;;;;;;;6.68;100.00;101796.63;5028547;28;20144;-64
2022/09/19 03:17:53;;;;;;;4.50;1.80;;;;;;;6.67;100.00;101794.88;5028048;28;20021;-64
2022/09/19 03:20:19;;;;;;;5.93;1.85;;;;;;;6.68;100.00;101804.34;5028735;28;20026;-64
2022/09/19 03:22:45;;;;;;;8.75;2.58;;;;;;;6.68;100.00;101804.34;5010362;28;20060;-64
2022/09/19 03:25:11;;;;;;;7.80;2.20;;;;;;;6.67;100.00;101800.03;5028452;28;20076;-64
2022/09/19 03:27:37;;;;;;;7.45;1.70;;;;;;;6.66;100.00;101803.38;5027711;28;20075;-63
2022/09/19 03:30:05;;;;;;;7.00;2.00;;;;;;;6.67;100.00;101801.69;5027517;28;20017;-63
2022/09/19 03:32:30;;;;;;;5.70;2.10;;;;;;;6.68;100.00;101795.72;5028393;28;20029;-63
2022/09/19 03:34:56;;;;;;;7.10;1.55;;;;;;;6.67;100.00;101800.03;5028133;28;20378;-63
2022/09/19 03:37:22;;;;;;;7.25;1.50;;;;;;;6.66;100.00;101798.22;5028099;28;20484;-64
2022/09/19 03:39:48;;;;;;;5.78;2.10;;;;;;;6.68;100.00;101801.78;5028046;28;20025;-64
2022/09/19 03:42:14;;;;;;;11.48;2.55;;;;;;;6.68;100.00;101799.22;5027756;28;20083;-62
2022/09/19 03:44:39;;;;;;;13.07;2.15;;;;;;;6.70;100.00;101801.88;5027752;28;20064;-63
2022/09/19 03:47:05;;;;;;;6.72;1.45;;;;;;;6.75;100.00;101802.16;5028124;28;20021;-63
2022/09/19 03:49:30;;;;;;;8.38;2.25;;;;;;;6.77;100.00;101804.06;5027849;28;20330;-63
2022/09/19 03:51:56;;;;;;;11.60;2.50;;;;;;;6.83;100.00;101806.13;5028375;28;20350;-63
2022/09/19 03:54:21;;;;;;;7.50;1.92;;;;;;;6.89;100.00;101801.34;5027252;28;20139;-63
2022/09/19 03:56:46;;;;;;;11.00;1.92;;;;;;;6.95;100.00;101803.41;5027360;28;20102;-63
2022/09/19 03:59:12;;;;;;;9.38;1.77;;;;;;;7.02;100.00;101807.25;5027728;28;20060;-63
2022/09/19 04:01:37;;;;;;;7.22;1.50;;;;;;;7.05;100.00;101810.91;5028019;28;20112;-63
2022/09/19 04:04:04;;;;;;;10.40;1.90;;;;;;;7.09;100.00;101804.28;5027400;28;20179;-63
2022/09/19 04:06:30;;;;;;;11.73;1.83;;;;;;;7.13;100.00;101802.78;5027649;28;20409;-63
2022/09/19 04:08:55;;;;;;;6.30;1.77;;;;;;;7.16;100.00;101803.84;5027210;28;20026;-63
2022/09/19 04:11:20;;;;;;;7.63;1.60;;;;;;;7.18;100.00;101804.84;5027483;28;20444;-63
2022/09/19 04:13:48;;;;;;;6.95;1.95;;;;;;;7.18;100.00;101807.44;5027888;28;20053;-63
2022/09/19 04:16:14;;;;;;;10.25;2.30;;;;;;;7.18;100.00;101814.25;5026939;28;20063;-63
2022/09/19 04:18:44;;;;;;;8.30;1.83;;;;;;;7.18;100.00;101819.41;5027352;28;20049;-63
2022/09/19 04:21:09;;;;;;;6.03;1.80;;;;;;;7.17;100.00;101817.66;5026938;28;20420;-62
2022/09/19 04:23:34;;;;;;;8.77;2.25;;;;;;;7.15;100.00;101820.13;5027412;28;20018;-63
2022/09/19 04:26:03;;;;;;;8.20;1.75;;;;;;;7.15;100.00;101827.88;5027126;28;20585;-63
2022/09/19 04:28:30;;;;;;;7.85;1.90;;;;;;;7.16;100.00;101831.34;5027110;28;20025;-63
2022/09/19 04:30:55;;;;;;;10.40;2.13;;;;;;;7.17;100.00;101828.84;5027027;28;20351;-63
2022/09/19 04:33:22;;;;;;;7.65;2.10;;;;;;;7.18;100.00;101832.31;5026698;28;20041;-63
2022/09/19 04:35:47;;;;;;;10.68;1.50;;;;;;;7.17;100.00;101839.16;5027467;28;20354;-63
2022/09/19 04:38:18;;;;;;;8.85;1.80;;;;;;;7.18;100.00;101827.16;5026925;28;20047;-63
2022/09/19 04:40:46;;;;;;;11.20;1.92;;;;;;;7.18;100.00;101834.88;5026752;28;20029;-63
2022/09/19 04:43:14;;;;;;;10.60;2.03;;;;;;;7.17;100.00;101839.16;5026830;28;20108;-63
2022/09/19 04:45:42;;;;;;;7.07;1.95;;;;;;;7.18;100.00;101840.94;5032001;28;20107;-63
2022/09/19 04:48:08;;;;;;;8.32;2.17;;;;;;;7.17;100.00;101839.16;5033759;28;20120;-63
2022/09/19 04:50:35;;;;;;;11.45;1.92;;;;;;;7.13;100.00;101837.19;5029210;28;20470;-63
2022/09/19 04:53:01;;;;;;;6.03;1.63;;;;;;;7.09;100.00;101841.25;5026465;28;20567;-63
2022/09/19 04:55:27;;;;;;;9.13;1.83;;;;;;;7.07;100.00;101844.53;5025354;28;20036;-63
2022/09/19 04:57:54;;;;;;;8.75;1.70;;;;;;;7.05;100.00;101847.00;5023147;28;20029;-63
2022/09/19 05:00:36;;;;;;;13.63;3.63;;;;;;;7.05;100.00;101846.13;5026186;28;20041;-63
2022/09/19 05:03:07;;;;;;;7.80;1.40;;;;;;;7.06;100.00;101845.31;5036719;28;20025;-63
2022/09/19 05:05:37;;;;;;;7.38;2.17;;;;;;;7.05;100.00;101851.28;5025893;28;20484;-63
2022/09/19 05:08:04;;;;;;;11.52;2.53;;;;;;;7.06;100.00;101850.47;5024161;28;20022;-63
2022/09/19 05:10:32;;;;;;;4.55;1.77;;;;;;;7.07;100.00;101852.25;5024250;28;20532;-63
2022/09/19 05:12:57;;;;;;;8.25;2.03;;;;;;;7.10;100.00;101852.47;5023771;28;20022;-63
2022/09/19 05:15:24;;;;;;;8.73;2.25;;;;;;;7.11;100.00;101849.09;5024320;28;20033;-62
2022/09/19 05:17:52;;;;;;;8.77;1.80;;;;;;;7.14;100.00;101859.56;5023685;28;20300;-63
2022/09/19 05:20:19;;;;;;;11.70;2.75;;;;;;;7.15;100.00;101856.22;5024444;28;20652;-63
2022/09/19 05:22:44;;;;;;;8.80;1.85;;;;;;;7.16;100.00;101858.00;5026545;28;20580;-63
2022/09/19 05:25:09;;;;;;;9.10;2.35;;;;;;;7.19;100.00;101862.47;5029058;28;20017;-63
2022/09/19 05:27:36;;;;;;;5.15;2.17;;;;;;;7.20;100.00;101857.41;5029847;28;20025;-63
2022/09/19 05:30:03;;;;;;;5.68;1.88;;;;;;;7.21;100.00;101866.91;5041780;28;20025;-63
2022/09/19 05:32:29;;;;;;;8.93;2.17;;;;;;;7.25;100.00;101867.13;5030175;28;20018;-63
2022/09/19 05:34:56;;;;;;;8.35;2.20;;;;;;;7.28;100.00;101867.31;5029274;28;20469;-63
2022/09/19 05:37:22;;;;;;;11.45;1.98;;;;;;;7.31;100.00;101873.53;5030276;28;20033;-63
2022/09/19 05:39:48;;;;;;;11.23;2.40;;;;;;;7.34;100.00;101862.50;5029009;28;20037;-63
2022/09/19 05:42:13;;;;;;;5.72;1.90;;;;;;;7.38;100.00;101879.97;5029555;28;20476;-63
2022/09/19 05:44:38;;;;;;;12.68;2.88;;;;;;;7.41;100.00;101882.72;5030145;28;20252;-63
2022/09/19 05:47:04;;;;;;;7.70;2.03;;;;;;;7.44;100.00;101880.34;5030857;28;20025;-63
2022/09/19 05:49:31;;;;;;;7.15;1.90;;;;;;;7.45;100.00;101879.53;5028040;28;20064;-63
2022/09/19 05:51:56;;;;;;;8.35;2.35;;;;;;;7.50;100.00;101886.69;5015592;28;20060;-63
2022/09/19 05:54:22;;;;;;;10.30;2.50;;;;;;;7.52;100.00;101879.94;5028092;28;20052;-62
2022/09/19 05:56:50;;;;;;;11.13;2.75;;;;;;;7.56;100.00;101877.63;5011263;28;20029;-63
2022/09/19 05:59:15;;;;;;;8.77;2.72;;;;;;;7.60;100.00;101881.28;5028177;28;20032;-63
2022/09/19 06:01:41;;;;;;;7.80;2.20;;;;;;;7.64;100.00;101888.41;5030142;28;20033;-63
2022/09/19 06:04:07;;;;;;;7.43;2.17;;;;;;;7.64;100.00;101878.09;5029245;28;20079;-63
2022/09/19 06:06:35;;;;;;;10.93;2.30;;;;;;;7.66;100.00;101884.22;5028904;28;20063;-63
2022/09/19 06:09:01;;;;;;;8.32;2.13;;;;;;;7.68;100.00;101892.94;5030030;28;20746;-62
2022/09/19 06:11:27;;;;;;;6.82;1.92;;;;;;;7.74;100.00;101889.84;5028677;28;20386;-63
2022/09/19 06:16:37;;;;;;;7.10;3.13;;;;;;;7.86;100.00;101888.81;5029478;28;20068;-63
2022/09/19 06:19:04;;;;;;;7.03;2.35;;;;;;;7.88;100.00;101893.25;5029665;28;20485;-63
2022/09/19 06:21:31;;;;;;;13.90;2.72;;;;;;;7.93;100.00;101891.84;5024834;28;20038;-63
2022/09/19 06:23:57;;;;;;;11.07;3.47;;;;;;;8.00;100.00;101898.28;5027493;28;20021;-63
2022/09/19 06:26:23;;;;;;;7.97;3.05;;;;;;;8.04;100.00;101904.53;5028130;28;20095;-63
2022/09/19 06:28:48;;;;;;;10.50;2.95;;;;;;;8.09;100.00;101899.63;5024220;28;20148;-63
2022/09/19 06:31:13;;;;;;;7.15;2.92;;;;;;;8.13;100.00;101910.22;5028077;28;20108;-64
2022/09/19 06:33:41;;;;;;;8.70;3.50;;;;;;;8.16;100.00;101907.84;5027596;28;20022;-64
2022/09/19 06:36:06;;;;;;;11.75;4.35;;;;;;;8.20;100.00;101910.59;5028277;28;20029;-63
2022/09/19 06:38:32;;;;;;;12.77;3.13;;;;;;;8.24;100.00;101909.97;5024985;28;20036;-63
2022/09/19 06:40:58;;;;;;;8.43;3.22;;;;;;;8.35;100.00;101908.91;5027576;28;20045;-63
2022/09/19 06:43:25;;;;;;;6.13;2.00;;;;;;;8.51;100.00;101907.19;5027421;28;20053;-63
2022/09/19 06:45:52;;;;;;;10.50;2.67;;;;;;;8.63;100.00;101917.41;5027494;28;20567;-63
2022/09/19 06:48:17;;;;;;;7.93;2.25;;;;;;;8.76;100.00;101912.09;5027245;28;20033;-63
2022/09/19 06:50:46;;;;;;;9.75;2.78;;;;;;;9.21;100.00;101920.59;5027753;28;20397;-63
2022/09/19 06:53:12;;;;;;;6.85;3.00;;;;;;;9.79;100.00;101924.50;5029541;28;20029;-63
2022/09/19 06:55:37;;;;;;;9.43;2.53;;;;;;;10.27;100.00;101923.47;5025170;28;20028;-63
2022/09/19 06:58:05;;;;;;;7.95;2.72;;;;;;;10.47;100.00;101923.59;5045584;28;20353;-63
2022/09/19 07:00:35;;;;;;;8.05;2.47;;;;;;;10.57;100.00;101925.88;5047540;28;20039;-63
2022/09/19 07:03:04;;;;;;;10.90;2.30;;;;;;;10.56;100.00;101930.97;5042667;28;20021;-63
2022/09/19 07:05:34;;;;;;;7.28;2.72;;;;;;;10.51;100.00;101932.44;5042414;28;20047;-63
2022/09/19 07:07:59;;;;;;;9.55;2.33;;;;;;;10.40;100.00;101934.47;5029178;28;20488;-64
2022/09/19 07:10:26;;;;;;;8.25;2.55;;;;;;;10.30;100.00;101939.22;5043184;28;20032;-64
2022/09/19 07:13:01;;;;;;;10.27;2.20;;;;;;;10.26;100.00;101934.66;5042800;28;20272;-63
2022/09/19 07:15:36;;;;;;;8.93;2.65;;;;;;;10.29;100.00;101940.00;5044639;28;20641;-63
2022/09/19 07:18:07;;;;;;;11.85;2.60;;;;;;;10.45;100.00;101938.19;5040226;28;20099;-63
2022/09/19 07:20:33;;;;;;;6.40;1.92;;;;;;;10.61;100.00;101946.75;5045571;28;20106;-63
2022/09/19 07:23:09;;;;;;;8.25;2.22;;;;;;;10.66;100.00;101947.88;5046060;28;20511;-64
2022/09/19 07:25:34;;;;;;;9.70;2.30;;;;;;;10.67;100.00;101960.00;5046472;28;20017;-63
2022/09/19 07:28:02;;;;;;;11.10;2.80;;;;;;;10.65;100.00;101957.34;5044531;28;20090;-63
2022/09/19 07:30:28;;;;;;;8.55;2.63;;;;;;;10.63;100.00;101965.88;5044541;28;20027;-63
2022/09/19 07:32:58;;;;;;;5.18;1.73;;;;;;;10.59;100.00;101971.72;5043191;28;20104;-63
2022/09/19 07:35:28;;;;;;;7.07;2.00;;;;;;;10.56;100.00;101967.25;5028016;28;20021;-63
2022/09/19 07:37:56;;;;;;;7.50;1.80;;;;;;;10.53;100.00;101970.59;5039928;28;20021;-64
2022/09/19 07:40:22;;;;;;;9.43;2.10;;;;;;;10.65;100.00;101972.03;5042355;28;20040;-63
2022/09/19 07:42:48;;;;;;;12.98;2.25;;;;;;;10.71;100.00;101967.13;5025142;28;20037;-63
2022/09/19 07:45:14;;;;;;;9.55;2.55;;;;;;;10.73;100.00;101975.88;5044820;28;20305;-63
2022/09/19 07:47:46;;;;;;;8.38;2.08;;;;;;;10.73;100.00;101975.00;5043395;28;20020;-64
2022/09/19 07:50:16;;;;;;;7.45;1.85;;;;;;;10.71;100.00;101977.50;5046511;28;20108;-63
2022/09/19 07:52:45;;;;;;;10.38;2.05;;;;;;;10.70;100.00;101973.16;5044093;28;20386;-63
2022/09/19 07:55:11;;;;;;;9.20;1.88;;;;;;;10.71;100.00;101982.69;5043172;28;20109;-63
2022/09/19 07:57:36;;;;;;;8.80;2.03;;;;;;;10.73;100.00;101981.06;5043504;28;20100;-63
2022/09/19 08:00:03;;;;;;;9.75;1.95;;;;;;;10.76;100.00;101988.09;5045839;28;20017;-64
2022/09/19 08:02:28;;;;;;;7.82;2.28;;;;;;;10.78;100.00;101989.06;5045131;28;20016;-63
2022/09/19 08:04:54;;;;;;;9.60;2.53;;;;;;;10.80;100.00;101983.16;5046245;28;20031;-63
2022/09/19 08:07:19;;;;;;;7.38;2.60;;;;;;;10.85;100.00;101985.09;5045323;28;20033;-64
2022/09/19 08:09:44;;;;;;;8.52;2.47;;;;;;;10.93;100.00;101996.72;5042013;28;20021;-64
2022/09/19 08:12:11;;;;;;;11.25;3.60;;;;;;;11.03;100.00;101991.16;5044617;28;20100;-63
2022/09/19 08:14:37;;;;;;;7.40;2.55;;;;;;;11.09;100.00;102000.97;5043156;28;20174;-63
2022/09/19 08:17:02;;;;;;;8.43;2.65;;;;;;;11.11;100.00;102001.03;5044907;28;20048;-64
2022/09/19 08:19:28;;;;;;;10.02;2.47;;;;;;;11.17;100.00;102003.94;5044850;28;20020;-63
2022/09/19 08:21:53;;;;;;;8.15;2.10;;;;;;;11.21;100.00;102005.84;5045850;28;20527;-64
2022/09/19 08:24:19;;;;;;;10.20;2.58;;;;;;;11.22;100.00;102002.44;5042783;28;20031;-64
2022/09/19 08:26:44;;;;;;;7.00;2.00;;;;;;;11.24;100.00;102011.16;5037512;28;20476;-63
2022/09/19 08:29:09;;;;;;;7.18;2.65;;;;;;;11.35;100.00;102013.41;5044071;28;20036;-63
2022/09/19 08:31:36;;;;;;;7.70;2.35;;;;;;;11.53;100.00;102003.88;5042688;28;20283;-64
2022/09/19 08:34:02;;;;;;;10.90;2.35;;;;;;;11.79;100.00;102010.19;5045200;28;20036;-64
2022/09/19 08:36:27;;;;;;;9.52;1.98;;;;;;;12.03;100.00;102015.63;5044060;28;20048;-63
2022/09/19 08:38:53;;;;;;;7.85;2.33;;;;;;;12.33;100.00;102019.53;5038046;28;20469;-64
2022/09/19 08:41:41;;;;;;;8.57;2.33;;;;;;;12.62;100.00;102019.91;5027409;28;20029;-64
2022/09/19 08:44:25;;;;;;;8.48;1.58;;;;;;;12.82;100.00;102014.66;5027620;28;20037;-63
2022/09/19 08:47:13;;;;;;;7.50;1.67;;;;;;;12.98;100.00;102016.19;5026970;28;20025;-64
2022/09/19 08:49:46;;;;;;;6.97;1.70;;;;;;;13.12;100.00;102014.13;5026963;28;20473;-63
2022/09/19 08:52:27;;;;;;;11.00;2.03;;;;;;;13.19;100.00;102021.34;5039975;28;20033;-64
2022/09/19 08:54:54;;;;;;;8.13;1.92;;;;;;;13.21;100.00;102024.91;5026720;28;20396;-63
2022/09/19 08:57:25;;;;;;;5.25;1.75;;;;;;;13.28;100.00;102019.94;5030172;28;20465;-64
2022/09/19 08:59:52;;;;;;;;;;;;;;;13.51;100.00;102020.84;5037077;28;20028;-64
2022/09/19 09:02:59;;;;;;;8.52;1.48;;;;;;;13.92;100.00;102020.66;5017664;28;20403;-63
2022/09/19 09:05:44;;;;;;;6.10;2.47;;;;;;;14.38;100.00;102010.13;5023793;28;20037;-64
2022/09/19 09:08:33;;;;;;;8.85;1.58;;;;;;;14.64;100.00;102012.72;5037917;28;20024;-64
2022/09/19 09:11:10;;;;;;;9.63;1.70;;;;;;;14.91;100.00;102015.38;5030222;28;20030;-64
2022/09/19 09:14:01;;;;;;;8.05;1.70;;;;;;;15.18;100.00;102017.09;5030805;28;20025;-64
2022/09/19 09:16:44;;;;;;;7.55;1.92;;;;;;;15.32;95.57;102012.31;5033422;28;20124;-64
2022/09/19 09:19:22;;;;;;;6.40;1.58;;;;;;;15.44;100.00;102009.16;5031494;28;20208;-64
2022/09/19 09:22:16;;;;;;;9.88;2.38;;;;;;;15.56;98.86;102012.16;5030316;28;20484;-64
2022/09/19 09:24:58;;;;;;;7.03;1.50;;;;;;;15.66;97.67;102012.44;5030895;28;20851;-64
2022/09/19 09:27:30;;;;;;;9.55;2.55;;;;;;;15.68;97.34;102011.66;5030306;28;20071;-64
2022/09/19 09:30:01;;;;;;;5.53;1.10;;;;;;;15.75;96.38;102007.50;5029765;28;20071;-64
2022/09/19 09:32:43;;;;;;;5.35;1.15;;;;;;;15.78;97.28;102004.94;5030124;28;20469;-64
2022/09/19 09:35:28;;;;;;;6.47;1.20;;;;;;;15.87;96.77;102008.66;5030768;28;20037;-64
2022/09/19 09:38:02;;;;;;;6.88;1.40;;;;;;;15.90;93.79;102008.78;5030310;28;20022;-65
2022/09/19 09:43:28;;;;;;;5.95;1.40;;;;;;;16.03;94.46;102012.66;5030597;28;20131;-64
2022/09/19 09:45:54;;;;;;;5.57;1.88;;;;;;;16.02;91.65;102016.09;5031020;28;20021;-64
2022/09/19 09:48:28;;;;;;;7.35;1.50;;;;;;;16.00;94.21;102008.22;5030924;28;20043;-64
2022/09/19 09:51:15;;;;;;;6.43;1.50;;;;;;;16.01;92.94;102012.59;5030450;28;20037;-64
2022/09/19 09:54:02;;;;;;;5.78;1.58;;;;;;;16.03;92.09;102013.53;5030848;28;20060;-64
2022/09/19 09:56:49;;;;;;;5.38;1.10;;;;;;;16.04;92.91;102011.81;5029049;28;20040;-64
2022/09/19 10:05:17;;;;;;;5.68;1.10;;;;;;;15.91;92.65;102011.44;5021966;28;20627;-64
2022/09/19 10:08:14;;;;;;;5.38;1.30;;;;;;;15.93;97.65;102011.47;5028380;28;20650;-64
2022/09/19 10:10:41;;;;;;;6.63;1.15;;;;;;;15.90;92.35;102009.63;5029599;28;20021;-64
2022/09/19 10:13:29;;;;;;;5.70;1.05;;;;;;;15.83;92.21;102005.09;5022131;28;20025;-64
2022/09/19 10:16:02;;;;;;;4.85;1.27;;;;;;;15.87;92.27;102009.56;5028440;28;20112;-64
2022/09/19 10:18:37;;;;;;;6.55;1.65;;;;;;;15.85;87.76;102003.41;5028845;28;20018;-64
2022/09/19 10:21:02;;;;;;;4.40;1.15;;;;;;;15.69;87.02;102012.50;5026341;28;20030;-64
2022/09/19 10:23:33;;;;;;;6.45;1.30;;;;;;;15.49;86.68;102021.53;5028279;28;20025;-64
2022/09/19 10:26:14;;;;;;;4.75;1.38;;;;;;;15.40;89.89;102026.47;5029642;28;20025;-64
2022/09/19 10:28:48;;;;;;;6.18;1.60;;;;;;;15.35;88.81;102018.50;5028078;28;20079;-64
2022/09/19 10:31:34;;;;;;;4.05;0.90;;;;;;;15.33;91.61;102024.50;5029565;28;20432;-64
2022/09/19 10:34:04;;;;;;;4.38;1.13;;;;;;;15.27;88.42;102024.34;5028915;28;20264;-64
2022/09/19 10:36:34;;;;;;;7.18;1.05;;;;;;;15.23;90.22;102029.47;5026948;28;20249;-64
2022/09/19 10:39:07;;;;;;;5.43;0.95;;;;;;;15.22;93.04;102024.16;5029442;28;20434;-64
2022/09/19 10:41:34;;;;;;;6.70;1.42;;;;;;;15.22;93.59;102021.56;5028940;28;20120;-64
2022/09/19 10:44:01;;;;;;;6.13;1.20;;;;;;;15.23;91.59;102028.56;5028348;28;20078;-64
2022/09/19 10:46:44;;;;;;;7.35;1.50;;;;;;;15.30;92.60;102025.31;5029216;28;20385;-64
2022/09/19 10:49:25;;;;;;;3.95;0.90;;;;;;;15.38;93.17;102019.44;5028408;28;20071;-64
2022/09/19 10:51:52;;;;;;;6.35;1.45;;;;;;;15.42;91.11;102023.91;5029223;28;20025;-64
2022/09/19 10:54:38;;;;;;;6.45;1.50;;;;;;;15.36;86.72;102025.50;5027799;28;20033;-64
2022/09/19 10:57:05;;;;;;;4.13;0.95;;;;;;;15.32;83.86;102028.88;5028618;28;20031;-64
2022/09/19 10:59:36;;;;;;;2.47;0.80;;;;;;;15.30;83.72;102020.09;5027931;28;20052;-64
2022/09/19 11:02:22;;;;;;;7.07;1.08;;;;;;;15.36;86.45;102020.25;5028399;28;20485;-64
2022/09/19 11:05:03;;;;;;;4.20;2.03;;;;;;;15.53;86.38;102017.28;5028504;28;20032;-64
2022/09/19 11:07:41;;;;;;;3.80;0.83;;;;;;;15.69;84.39;102015.13;5032548;28;20111;-64
2022/09/19 11:10:37;;;;;;;7.57;0.85;;;;;;;15.82;83.57;102014.66;5032413;28;20025;-64
2022/09/19 11:13:22;;;;;;;3.20;1.13;;;;;;;15.98;84.83;102022.94;5028697;28;20364;-64
2022/09/19 11:16:19;;;;;;;4.65;0.73;;;;;;;16.18;83.30;102018.31;5028331;28;20041;-64
2022/09/19 11:18:47;;;;;;;6.40;1.35;;;;;;;16.31;80.92;102016.03;5027656;28;20082;-65
2022/09/19 11:21:56;;;;;;;6.78;1.10;;;;;;;16.42;81.15;102014.56;5028335;28;20021;-64
2022/09/19 11:24:29;;;;;;;7.85;1.70;;;;;;;16.59;81.07;102013.22;5002110;28;20087;-64
2022/09/19 11:27:04;;;;;;;5.25;0.75;;;;;;;16.74;80.81;102012.75;5027443;28;20033;-64
2022/09/19 11:29:51;;;;;;;5.65;1.35;;;;;;;16.80;79.12;102008.53;5028224;28;20021;-64
2022/09/19 11:32:34;;;;;;;4.80;1.10;;;;;;;16.80;80.92;102010.28;5023974;28;20037;-64
2022/09/19 11:35:18;;;;;;;5.72;1.02;;;;;;;16.71;80.00;102013.56;5028133;28;20379;-64
2022/09/19 11:38:19;;;;;;;4.78;0.93;;;;;;;16.57;78.08;102021.03;5017865;28;20017;-64
2022/09/19 11:41:15;;;;;;;5.33;1.07;;;;;;;16.42;80.00;102022.41;5027624;28;20095;-64
2022/09/19 11:43:51;;;;;;;7.13;1.63;;;;;;;16.33;80.80;102017.81;5027816;28;20476;-64
2022/09/19 11:46:39;;;;;;;5.20;0.90;;;;;;;16.28;81.22;102014.19;5027849;28;20068;-64
2022/09/19 11:49:31;;;;;;;4.82;1.40;;;;;;;16.29;82.42;102005.53;5027107;28;20124;-64
2022/09/19 11:52:42;;;;;;;4.78;1.02;;;;;;;16.43;82.50;102015.44;5027583;28;20619;-64
2022/09/19 11:55:46;;;;;;;2.60;0.98;;;;;;;16.79;83.30;102001.53;4998880;28;20029;-64
2022/09/19 11:58:42;;;;;;;3.92;1.08;;;;;;;16.98;78.52;102015.06;5012834;28;20064;-64